EZY745F EGGW-EGPF
Flight info
| Callsign | EZY745F |
|---|---|
| Flight time | 0h 53m |
| Altitude | 36000 |
| Route | OLNE2C OLNEY T420 TNT UN57 POL UN601 RIBEL DCT ASLIB ASLI1G |
| Aircraft | A319/M-SDE3FGHIRWY/LB1 |
Departure
| Time | 2026-05-07 06:48 |
|---|---|
| Airport | London Luton Airport (EGGW) |
Arrival
| Time | 2026-05-07 07:41 |
|---|---|
| Airport | Glasgow Airport (EGPF) |
| Time | Latitude | Longitude | Altitude | Speed | Heading |
|---|---|---|---|---|---|
| 2026-05-07 05:49 | 51.87670 | -0.37177 | 521 ft | 0 kts | 344° |
| 2026-05-07 06:40 | 51.87657 | -0.37171 | 521 ft | 3 kts | 344° |
| 2026-05-07 06:40 | 51.87637 | -0.37162 | 522 ft | 3 kts | 344° |
| 2026-05-07 06:40 | 51.87618 | -0.37154 | 522 ft | 3 kts | 336° |
| 2026-05-07 06:41 | 51.87605 | -0.37139 | 522 ft | 3 kts | 287° |
| 2026-05-07 06:41 | 51.87604 | -0.37117 | 522 ft | 1 kts | 255° |
| 2026-05-07 06:41 | 51.87607 | -0.37097 | 522 ft | 2 kts | 254° |
| 2026-05-07 06:41 | 51.87608 | -0.37092 | 522 ft | 0 kts | 254° |
| 2026-05-07 06:44 | 51.87607 | -0.37101 | 522 ft | 2 kts | 254° |
| 2026-05-07 06:44 | 51.87597 | -0.37160 | 522 ft | 9 kts | 255° |
| 2026-05-07 06:45 | 51.87578 | -0.37276 | 522 ft | 11 kts | 259° |
| 2026-05-07 06:45 | 51.87582 | -0.37406 | 522 ft | 12 kts | 262° |
| 2026-05-07 06:45 | 51.87523 | -0.37490 | 521 ft | 13 kts | 219° |
| 2026-05-07 06:45 | 51.87491 | -0.37615 | 523 ft | 12 kts | 254° |
| 2026-05-07 06:46 | 51.87467 | -0.37748 | 523 ft | 13 kts | 253° |
| 2026-05-07 06:46 | 51.87442 | -0.37895 | 523 ft | 14 kts | 255° |
| 2026-05-07 06:46 | 51.87419 | -0.38007 | 524 ft | 9 kts | 237° |
| 2026-05-07 06:46 | 51.87365 | -0.38069 | 523 ft | 11 kts | 206° |
| 2026-05-07 06:47 | 51.87287 | -0.38111 | 522 ft | 12 kts | 184° |
| 2026-05-07 06:47 | 51.87248 | -0.38087 | 524 ft | 4 kts | 104° |
| 2026-05-07 06:47 | 51.87258 | -0.38026 | 524 ft | 11 kts | 75° |
| 2026-05-07 06:47 | 51.87345 | -0.37526 | 521 ft | 86 kts | 74° |
| 2026-05-07 06:48 | 51.87569 | -0.36210 | 528 ft | 151 kts | 76° |
| 2026-05-07 06:48 | 51.87857 | -0.34513 | 1107 ft | 156 kts | 75° |
| 2026-05-07 06:48 | 51.88154 | -0.32831 | 1907 ft | 156 kts | 76° |
| 2026-05-07 06:48 | 51.88469 | -0.31055 | 2384 ft | 177 kts | 75° |
| 2026-05-07 06:49 | 51.88833 | -0.29010 | 2800 ft | 202 kts | 75° |
| 2026-05-07 06:49 | 51.89518 | -0.26887 | 3278 ft | 230 kts | 45° |
| 2026-05-07 06:49 | 51.91037 | -0.25756 | 3828 ft | 258 kts | 5° |
| 2026-05-07 06:49 | 51.92799 | -0.26418 | 4751 ft | 269 kts | 328° |
| 2026-05-07 06:50 | 51.94040 | -0.28667 | 5741 ft | 273 kts | 292° |
| 2026-05-07 06:50 | 51.94320 | -0.31690 | 6753 ft | 275 kts | 265° |
| 2026-05-07 06:50 | 51.94116 | -0.34784 | 7767 ft | 278 kts | 262° |
| 2026-05-07 06:50 | 51.93851 | -0.37902 | 8755 ft | 281 kts | 261° |
| 2026-05-07 06:51 | 51.93672 | -0.41071 | 9712 ft | 286 kts | 275° |
| 2026-05-07 06:51 | 51.94239 | -0.44157 | 10570 ft | 291 kts | 298° |
| 2026-05-07 06:51 | 51.95564 | -0.46777 | 10902 ft | 315 kts | 322° |
| 2026-05-07 06:51 | 51.97476 | -0.48660 | 11513 ft | 326 kts | 329° |
| 2026-05-07 06:52 | 51.99265 | -0.50963 | 12315 ft | 332 kts | 317° |
| 2026-05-07 06:52 | 52.00950 | -0.53555 | 13161 ft | 336 kts | 315° |
| 2026-05-07 06:52 | 52.02615 | -0.56256 | 13994 ft | 340 kts | 314° |
| 2026-05-07 06:52 | 52.04269 | -0.59027 | 14722 ft | 344 kts | 313° |
| 2026-05-07 06:53 | 52.05934 | -0.61849 | 15470 ft | 347 kts | 313° |
| 2026-05-07 06:53 | 52.07614 | -0.64706 | 16195 ft | 351 kts | 313° |
| 2026-05-07 06:53 | 52.09317 | -0.67593 | 16920 ft | 356 kts | 313° |
| 2026-05-07 06:53 | 52.11041 | -0.70505 | 17648 ft | 360 kts | 313° |
| 2026-05-07 06:54 | 52.12869 | -0.73322 | 18348 ft | 365 kts | 320° |
| 2026-05-07 06:54 | 52.14996 | -0.75620 | 18959 ft | 370 kts | 328° |
| 2026-05-07 06:54 | 52.17215 | -0.77790 | 19579 ft | 373 kts | 328° |
| 2026-05-07 06:54 | 52.19451 | -0.79992 | 20224 ft | 377 kts | 328° |
| 2026-05-07 06:55 | 52.21704 | -0.82221 | 20857 ft | 380 kts | 328° |
| 2026-05-07 06:55 | 52.23207 | -0.83712 | 21274 ft | 383 kts | 328° |
| 2026-05-07 06:55 | 52.25494 | -0.85985 | 21890 ft | 387 kts | 328° |
| 2026-05-07 06:55 | 52.28557 | -0.89030 | 22707 ft | 392 kts | 329° |
| 2026-05-07 06:56 | 52.30901 | -0.91362 | 23314 ft | 395 kts | 329° |
| 2026-05-07 06:56 | 52.33259 | -0.93710 | 23851 ft | 399 kts | 329° |
| 2026-05-07 06:56 | 52.35642 | -0.96083 | 24341 ft | 403 kts | 329° |
| 2026-05-07 06:56 | 52.38044 | -0.98479 | 24835 ft | 405 kts | 329° |
| 2026-05-07 06:57 | 52.39643 | -1.00076 | 25155 ft | 407 kts | 329° |
| 2026-05-07 06:57 | 52.42071 | -1.02503 | 25621 ft | 410 kts | 329° |
| 2026-05-07 06:57 | 52.44520 | -1.04957 | 26076 ft | 413 kts | 329° |
| 2026-05-07 06:57 | 52.46977 | -1.07422 | 26536 ft | 416 kts | 329° |
| 2026-05-07 06:58 | 52.49453 | -1.09910 | 26990 ft | 418 kts | 329° |
| 2026-05-07 06:58 | 52.51941 | -1.12413 | 27442 ft | 421 kts | 329° |
| 2026-05-07 06:58 | 52.54444 | -1.14936 | 27896 ft | 424 kts | 330° |
| 2026-05-07 06:58 | 52.56967 | -1.17479 | 28345 ft | 426 kts | 330° |
| 2026-05-07 06:59 | 52.59503 | -1.20034 | 28787 ft | 429 kts | 330° |
| 2026-05-07 06:59 | 52.62056 | -1.22608 | 29215 ft | 432 kts | 330° |
| 2026-05-07 06:59 | 52.64617 | -1.25201 | 29646 ft | 434 kts | 330° |
| 2026-05-07 06:59 | 52.67198 | -1.27821 | 30062 ft | 437 kts | 330° |
| 2026-05-07 07:00 | 52.69793 | -1.30457 | 30408 ft | 439 kts | 330° |
| 2026-05-07 07:00 | 52.72398 | -1.33107 | 30755 ft | 441 kts | 330° |
| 2026-05-07 07:00 | 52.75021 | -1.35778 | 31175 ft | 444 kts | 330° |
| 2026-05-07 07:00 | 52.77658 | -1.38464 | 31517 ft | 446 kts | 330° |
| 2026-05-07 07:01 | 52.80303 | -1.41162 | 31861 ft | 447 kts | 330° |
| 2026-05-07 07:01 | 52.82948 | -1.43864 | 32321 ft | 446 kts | 330° |
| 2026-05-07 07:01 | 52.85588 | -1.46566 | 32797 ft | 445 kts | 330° |
| 2026-05-07 07:01 | 52.88215 | -1.49259 | 33265 ft | 444 kts | 330° |
| 2026-05-07 07:02 | 52.90842 | -1.51955 | 33724 ft | 443 kts | 330° |
| 2026-05-07 07:02 | 52.93464 | -1.54651 | 34162 ft | 443 kts | 330° |
| 2026-05-07 07:02 | 52.96043 | -1.57311 | 34529 ft | 443 kts | 330° |
| 2026-05-07 07:02 | 52.98657 | -1.60010 | 34888 ft | 443 kts | 330° |
| 2026-05-07 07:03 | 53.01271 | -1.62716 | 35253 ft | 443 kts | 329° |
| 2026-05-07 07:03 | 53.03884 | -1.65414 | 35604 ft | 442 kts | 330° |
| 2026-05-07 07:03 | 53.06618 | -1.67732 | 35923 ft | 441 kts | 339° |
| 2026-05-07 07:03 | 53.09489 | -1.69537 | 36057 ft | 440 kts | 340° |
| 2026-05-07 07:04 | 53.15191 | -1.73055 | 36074 ft | 435 kts | 340° |
| 2026-05-07 07:04 | 53.20860 | -1.76573 | 36076 ft | 434 kts | 340° |
| 2026-05-07 07:05 | 53.26512 | -1.80090 | 36074 ft | 433 kts | 340° |
| 2026-05-07 07:05 | 53.32163 | -1.83617 | 36075 ft | 433 kts | 340° |
| 2026-05-07 07:06 | 53.37804 | -1.87158 | 36063 ft | 433 kts | 340° |
| 2026-05-07 07:06 | 53.43438 | -1.90714 | 36055 ft | 433 kts | 340° |
| 2026-05-07 07:07 | 53.49079 | -1.94265 | 36055 ft | 432 kts | 340° |
| 2026-05-07 07:07 | 53.54711 | -1.97829 | 36055 ft | 433 kts | 340° |
| 2026-05-07 07:08 | 53.60349 | -2.01394 | 36048 ft | 433 kts | 340° |
| 2026-05-07 07:08 | 53.65946 | -2.04945 | 36051 ft | 433 kts | 340° |
| 2026-05-07 07:09 | 53.71582 | -2.08539 | 36048 ft | 433 kts | 340° |
| 2026-05-07 07:09 | 53.77075 | -2.12087 | 36053 ft | 434 kts | 338° |
| 2026-05-07 07:10 | 53.82683 | -2.15908 | 36054 ft | 434 kts | 338° |
| 2026-05-07 07:10 | 53.88278 | -2.19797 | 36058 ft | 435 kts | 338° |
| 2026-05-07 07:11 | 53.93882 | -2.23662 | 36049 ft | 435 kts | 338° |
| 2026-05-07 07:11 | 53.99487 | -2.27513 | 36057 ft | 435 kts | 338° |
| 2026-05-07 07:12 | 54.04907 | -2.32033 | 36054 ft | 434 kts | 330° |
| 2026-05-07 07:12 | 54.10201 | -2.36999 | 36058 ft | 434 kts | 330° |
| 2026-05-07 07:13 | 54.15492 | -2.41964 | 36055 ft | 434 kts | 330° |
| 2026-05-07 07:13 | 54.20775 | -2.46924 | 36056 ft | 434 kts | 330° |
| 2026-05-07 07:14 | 54.26061 | -2.51918 | 36063 ft | 433 kts | 330° |
| 2026-05-07 07:14 | 54.31293 | -2.56877 | 35926 ft | 432 kts | 330° |
| 2026-05-07 07:15 | 54.33919 | -2.59368 | 35685 ft | 431 kts | 330° |
| 2026-05-07 07:15 | 54.36572 | -2.61887 | 35425 ft | 430 kts | 330° |
| 2026-05-07 07:15 | 54.39143 | -2.64335 | 35013 ft | 427 kts | 330° |
| 2026-05-07 07:15 | 54.41736 | -2.66809 | 34453 ft | 424 kts | 330° |
| 2026-05-07 07:16 | 54.44307 | -2.69268 | 33880 ft | 423 kts | 330° |
| 2026-05-07 07:16 | 54.46869 | -2.71719 | 33313 ft | 419 kts | 330° |
| 2026-05-07 07:16 | 54.49406 | -2.74151 | 32784 ft | 415 kts | 329° |
| 2026-05-07 07:16 | 54.51917 | -2.76560 | 32246 ft | 411 kts | 329° |
| 2026-05-07 07:17 | 54.54404 | -2.78947 | 31723 ft | 408 kts | 329° |
| 2026-05-07 07:17 | 54.56876 | -2.81318 | 31204 ft | 405 kts | 329° |
| 2026-05-07 07:17 | 54.59331 | -2.83677 | 30701 ft | 402 kts | 328° |
| 2026-05-07 07:17 | 54.61762 | -2.86016 | 30190 ft | 399 kts | 328° |
| 2026-05-07 07:18 | 54.64178 | -2.88345 | 29634 ft | 395 kts | 328° |
| 2026-05-07 07:18 | 54.66536 | -2.90626 | 29159 ft | 390 kts | 329° |
| 2026-05-07 07:18 | 54.68891 | -2.92910 | 28676 ft | 386 kts | 329° |
| 2026-05-07 07:18 | 54.71226 | -2.95177 | 28196 ft | 383 kts | 329° |
| 2026-05-07 07:19 | 54.73540 | -2.97425 | 27738 ft | 380 kts | 328° |
| 2026-05-07 07:19 | 54.75844 | -2.99664 | 27293 ft | 378 kts | 328° |
| 2026-05-07 07:19 | 54.78126 | -3.01886 | 26840 ft | 375 kts | 328° |
| 2026-05-07 07:19 | 54.80395 | -3.04103 | 26408 ft | 372 kts | 328° |
| 2026-05-07 07:20 | 54.82642 | -3.06299 | 25970 ft | 370 kts | 328° |
| 2026-05-07 07:20 | 54.84891 | -3.08497 | 25617 ft | 374 kts | 328° |
| 2026-05-07 07:20 | 54.87160 | -3.10719 | 25255 ft | 375 kts | 328° |
| 2026-05-07 07:20 | 54.89431 | -3.12942 | 24896 ft | 374 kts | 329° |
| 2026-05-07 07:21 | 54.91694 | -3.15157 | 24533 ft | 372 kts | 329° |
| 2026-05-07 07:21 | 54.93944 | -3.17365 | 24173 ft | 370 kts | 328° |
| 2026-05-07 07:21 | 54.96179 | -3.19564 | 23816 ft | 368 kts | 328° |
| 2026-05-07 07:21 | 54.98375 | -3.21728 | 23444 ft | 366 kts | 328° |
| 2026-05-07 07:22 | 55.00580 | -3.23902 | 23067 ft | 363 kts | 328° |
| 2026-05-07 07:22 | 55.02772 | -3.26067 | 22716 ft | 361 kts | 328° |
| 2026-05-07 07:22 | 55.04950 | -3.28222 | 22373 ft | 359 kts | 328° |
| 2026-05-07 07:22 | 55.07126 | -3.30376 | 22015 ft | 358 kts | 327° |
| 2026-05-07 07:23 | 55.09290 | -3.32522 | 21663 ft | 357 kts | 327° |
| 2026-05-07 07:23 | 55.11445 | -3.34660 | 21321 ft | 355 kts | 327° |
| 2026-05-07 07:23 | 55.13589 | -3.36794 | 20973 ft | 354 kts | 327° |
| 2026-05-07 07:23 | 55.15724 | -3.38922 | 20630 ft | 352 kts | 327° |
| 2026-05-07 07:24 | 55.17845 | -3.41038 | 20286 ft | 351 kts | 327° |
| 2026-05-07 07:24 | 55.19962 | -3.43150 | 19939 ft | 350 kts | 327° |
| 2026-05-07 07:24 | 55.22088 | -3.45272 | 19324 ft | 353 kts | 327° |
| 2026-05-07 07:24 | 55.24228 | -3.47413 | 18726 ft | 356 kts | 326° |
| 2026-05-07 07:25 | 55.28556 | -3.51758 | 17468 ft | 359 kts | 326° |
| 2026-05-07 07:25 | 55.30724 | -3.53936 | 16873 ft | 359 kts | 327° |
| 2026-05-07 07:25 | 55.32898 | -3.56118 | 16316 ft | 358 kts | 327° |
| 2026-05-07 07:26 | 55.35052 | -3.58279 | 15727 ft | 358 kts | 327° |
| 2026-05-07 07:26 | 55.37201 | -3.60437 | 15316 ft | 351 kts | 327° |
| 2026-05-07 07:26 | 55.39292 | -3.62536 | 14674 ft | 349 kts | 327° |
| 2026-05-07 07:26 | 55.41394 | -3.64653 | 14015 ft | 348 kts | 327° |
| 2026-05-07 07:27 | 55.43488 | -3.66771 | 13352 ft | 343 kts | 327° |
| 2026-05-07 07:27 | 55.45525 | -3.68829 | 12814 ft | 331 kts | 327° |
| 2026-05-07 07:27 | 55.47485 | -3.70806 | 12409 ft | 319 kts | 327° |
| 2026-05-07 07:27 | 55.49368 | -3.72707 | 12060 ft | 305 kts | 326° |
| 2026-05-07 07:28 | 55.51187 | -3.74553 | 11562 ft | 299 kts | 326° |
| 2026-05-07 07:28 | 55.52977 | -3.76377 | 11001 ft | 296 kts | 326° |
| 2026-05-07 07:28 | 55.54758 | -3.78198 | 10559 ft | 293 kts | 326° |
| 2026-05-07 07:28 | 55.56504 | -3.79985 | 10186 ft | 288 kts | 326° |
| 2026-05-07 07:29 | 55.58220 | -3.81738 | 9841 ft | 282 kts | 326° |
| 2026-05-07 07:29 | 55.59875 | -3.83429 | 9637 ft | 270 kts | 326° |
| 2026-05-07 07:29 | 55.61486 | -3.85079 | 9254 ft | 265 kts | 326° |
| 2026-05-07 07:29 | 55.63074 | -3.86708 | 8822 ft | 263 kts | 326° |
| 2026-05-07 07:30 | 55.64648 | -3.88324 | 8400 ft | 260 kts | 326° |
| 2026-05-07 07:30 | 55.66204 | -3.89924 | 7980 ft | 258 kts | 326° |
| 2026-05-07 07:30 | 55.67751 | -3.91513 | 7556 ft | 256 kts | 326° |
| 2026-05-07 07:30 | 55.69268 | -3.93054 | 7154 ft | 254 kts | 327° |
| 2026-05-07 07:31 | 55.70971 | -3.93975 | 6708 ft | 259 kts | 347° |
| 2026-05-07 07:31 | 55.72761 | -3.94408 | 6290 ft | 258 kts | 349° |
| 2026-05-07 07:31 | 55.74539 | -3.94790 | 5911 ft | 258 kts | 349° |
| 2026-05-07 07:31 | 55.76317 | -3.95168 | 5575 ft | 257 kts | 349° |
| 2026-05-07 07:32 | 55.78084 | -3.95550 | 5363 ft | 256 kts | 349° |
| 2026-05-07 07:32 | 55.79853 | -3.95933 | 5187 ft | 256 kts | 349° |
| 2026-05-07 07:32 | 55.81620 | -3.96316 | 5005 ft | 256 kts | 349° |
| 2026-05-07 07:32 | 55.83386 | -3.96704 | 4824 ft | 255 kts | 349° |
| 2026-05-07 07:33 | 55.85144 | -3.97100 | 4678 ft | 255 kts | 348° |
| 2026-05-07 07:33 | 55.86833 | -3.97957 | 4541 ft | 252 kts | 336° |
| 2026-05-07 07:33 | 55.88470 | -3.99078 | 4406 ft | 251 kts | 334° |
| 2026-05-07 07:33 | 55.90095 | -4.00219 | 4272 ft | 251 kts | 333° |
| 2026-05-07 07:34 | 55.91699 | -4.01417 | 4138 ft | 246 kts | 333° |
| 2026-05-07 07:34 | 55.93248 | -4.02550 | 4028 ft | 236 kts | 333° |
| 2026-05-07 07:34 | 55.94697 | -4.03737 | 3949 ft | 221 kts | 321° |
| 2026-05-07 07:34 | 55.95871 | -4.05319 | 3869 ft | 209 kts | 315° |
| 2026-05-07 07:35 | 55.96967 | -4.06927 | 3787 ft | 198 kts | 314° |
| 2026-05-07 07:35 | 55.98013 | -4.08466 | 3755 ft | 194 kts | 314° |
| 2026-05-07 07:35 | 55.99051 | -4.09994 | 3666 ft | 193 kts | 314° |
| 2026-05-07 07:35 | 55.99961 | -4.11706 | 3606 ft | 187 kts | 297° |
| 2026-05-07 07:36 | 56.00479 | -4.13782 | 3559 ft | 180 kts | 278° |
| 2026-05-07 07:36 | 56.00584 | -4.15965 | 3501 ft | 174 kts | 261° |
| 2026-05-07 07:36 | 56.00304 | -4.18038 | 3463 ft | 170 kts | 243° |
| 2026-05-07 07:36 | 55.99694 | -4.19819 | 3398 ft | 167 kts | 227° |
| 2026-05-07 07:37 | 55.98897 | -4.21329 | 3260 ft | 169 kts | 224° |
| 2026-05-07 07:37 | 55.98091 | -4.22851 | 3040 ft | 167 kts | 224° |
| 2026-05-07 07:37 | 55.97303 | -4.24340 | 2827 ft | 162 kts | 224° |
| 2026-05-07 07:37 | 55.96543 | -4.25772 | 2610 ft | 160 kts | 223° |
| 2026-05-07 07:38 | 55.95783 | -4.27204 | 2397 ft | 158 kts | 223° |
| 2026-05-07 07:38 | 55.95022 | -4.28636 | 2170 ft | 155 kts | 223° |
| 2026-05-07 07:38 | 55.94302 | -4.29991 | 1958 ft | 149 kts | 222° |
| 2026-05-07 07:38 | 55.93621 | -4.31274 | 1769 ft | 135 kts | 221° |
| 2026-05-07 07:39 | 55.93004 | -4.32435 | 1578 ft | 125 kts | 221° |
| 2026-05-07 07:39 | 55.92413 | -4.33545 | 1402 ft | 123 kts | 221° |
| 2026-05-07 07:39 | 55.91825 | -4.34648 | 1227 ft | 123 kts | 223° |
| 2026-05-07 07:39 | 55.91232 | -4.35759 | 1050 ft | 125 kts | 223° |
| 2026-05-07 07:40 | 55.90627 | -4.36892 | 869 ft | 126 kts | 221° |
| 2026-05-07 07:40 | 55.90017 | -4.38040 | 692 ft | 129 kts | 224° |
| 2026-05-07 07:40 | 55.89396 | -4.39207 | 513 ft | 130 kts | 223° |
| 2026-05-07 07:40 | 55.88769 | -4.40378 | 361 ft | 131 kts | 224° |
| 2026-05-07 07:41 | 55.88143 | -4.41568 | 165 ft | 131 kts | 224° |
| 2026-05-07 07:41 | 55.87514 | -4.42734 | 35 ft | 128 kts | 225° |
| 2026-05-07 07:41 | 55.86982 | -4.43716 | 33 ft | 86 kts | 226° |
| 2026-05-07 07:41 | 55.86744 | -4.44165 | 33 ft | 24 kts | 226° |
| 2026-05-07 07:42 | 55.86658 | -4.44272 | 34 ft | 12 kts | 179° |
| 2026-05-07 07:42 | 55.86618 | -4.44147 | 30 ft | 15 kts | 90° |
| 2026-05-07 07:42 | 55.86618 | -4.43986 | 29 ft | 9 kts | 84° |
| 2026-05-07 07:42 | 55.86655 | -4.43897 | 29 ft | 10 kts | 46° |
| 2026-05-07 07:43 | 55.86713 | -4.43789 | 27 ft | 13 kts | 47° |
| 2026-05-07 07:43 | 55.86746 | -4.43644 | 30 ft | 12 kts | 73° |
| 2026-05-07 07:43 | 55.86772 | -4.43491 | 30 ft | 14 kts | 73° |
| 2026-05-07 07:43 | 55.86794 | -4.43350 | 31 ft | 7 kts | 78° |
| 2026-05-07 07:44 | 55.86767 | -4.43284 | 31 ft | 8 kts | 156° |
| 2026-05-07 07:44 | 55.86709 | -4.43253 | 31 ft | 9 kts | 163° |
| 2026-05-07 07:44 | 55.86659 | -4.43227 | 30 ft | 1 kts | 163° |
| 2026-05-07 07:44 | 55.86651 | -4.43206 | 30 ft | 3 kts | 108° |
| 2026-05-07 07:45 | 55.86654 | -4.43175 | 31 ft | 2 kts | 79° |
| 2026-05-07 07:45 | 55.86656 | -4.43162 | 31 ft | 0 kts | 74° |
| 2026-05-07 07:45 | 55.86658 | -4.43151 | 32 ft | 1 kts | 73° |
| 2026-05-07 07:45 | 55.86661 | -4.43131 | 32 ft | 0 kts | 73° |